createdAt,value
2023-09-28T00:01:39.785Z,98863.41
2023-09-28T00:04:08.165Z,98871.50
2023-09-28T00:06:37.270Z,98870.50
2023-09-28T00:09:06.786Z,98868.63
2023-09-28T00:11:35.209Z,98862.22
2023-09-28T00:14:02.999Z,98867.81
2023-09-28T00:16:33.083Z,98863.41
2023-09-28T00:19:00.601Z,98871.50
2023-09-28T00:21:29.099Z,98862.41
2023-09-28T00:23:57.219Z,98865.13
2023-09-28T00:26:27.141Z,98860.72
2023-09-28T00:28:54.647Z,98866.09
2023-09-28T00:31:23.291Z,98860.72
2023-09-28T00:33:51.759Z,98861.75
2023-09-28T00:36:19.205Z,98866.31
2023-09-28T00:38:49.020Z,98868.16
2023-09-28T00:41:16.949Z,98860.06
2023-09-28T00:43:47.035Z,98856.56
2023-09-28T00:46:16.650Z,98861.94
2023-09-28T00:48:54.956Z,98865.63
2023-09-28T00:51:22.416Z,98867.31
2023-09-28T00:53:52.516Z,98870.19
2023-09-28T00:56:22.748Z,98869.34
2023-09-28T00:58:52.084Z,98860.44
2023-09-28T01:01:20.660Z,98862.25
2023-09-28T01:03:48.217Z,98864.78
2023-09-28T01:06:16.767Z,98866.66
2023-09-28T01:08:44.666Z,98864.78
2023-09-28T01:11:13.227Z,98867.66
2023-09-28T01:13:40.940Z,98868.50
2023-09-28T01:16:10.735Z,98863.97
2023-09-28T01:18:38.247Z,98863.13
2023-09-28T01:21:08.053Z,98865.81
2023-09-28T01:23:37.029Z,98863.13
2023-09-28T01:26:05.494Z,98865.81
2023-09-28T01:28:33.608Z,98868.50
2023-09-28T01:31:02.565Z,98861.44
2023-09-28T01:33:31.341Z,98859.56
2023-09-28T01:35:59.896Z,98862.41
2023-09-28T01:38:32.159Z,98857.88
2023-09-28T01:41:02.617Z,98861.44
2023-09-28T01:43:30.252Z,98858.72
2023-09-28T01:45:58.727Z,98858.72
2023-09-28T01:48:26.290Z,98855.16
2023-09-28T01:50:54.657Z,98857.03
2023-09-28T01:53:24.309Z,98862.41
2023-09-28T01:55:53.271Z,98857.03
2023-09-28T01:58:22.342Z,98861.59
2023-09-28T02:00:50.767Z,98866.09
2023-09-28T02:03:18.353Z,98854.34
2023-09-28T02:05:46.811Z,98856.19
2023-09-28T02:08:14.491Z,98858.03
2023-09-28T02:10:43.166Z,98853.50
2023-09-28T02:13:10.855Z,98857.19
2023-09-28T02:15:43.992Z,98853.66
2023-09-28T02:18:11.535Z,98859.06
2023-09-28T02:20:40.669Z,98860.91
2023-09-28T02:23:10.727Z,98856.50
2023-09-28T02:25:39.440Z,98852.00
2023-09-28T02:28:06.895Z,98852.00
2023-09-28T02:30:35.487Z,98855.53
2023-09-28T02:33:07.955Z,98849.09
2023-09-28T02:35:36.963Z,98850.13
2023-09-28T02:38:04.926Z,98850.97
2023-09-28T02:40:34.353Z,98850.13
2023-09-28T02:43:01.808Z,98854.69
2023-09-28T02:45:30.601Z,98853.66
2023-09-28T02:47:58.237Z,98849.31
2023-09-28T02:50:28.260Z,98850.28
2023-09-28T02:52:55.727Z,98853.19
2023-09-28T02:55:24.210Z,98860.22
2023-09-28T02:57:51.731Z,98858.38
2023-09-28T03:00:32.013Z,98853.81
2023-09-28T03:03:00.263Z,98855.69
2023-09-28T03:05:31.069Z,98853.00
2023-09-28T03:08:00.043Z,98854.00
2023-09-28T03:10:30.798Z,98849.66
2023-09-28T03:12:59.763Z,98849.66
2023-09-28T03:15:27.256Z,98841.56
2023-09-28T03:17:57.156Z,98849.66
2023-09-28T03:20:26.410Z,98847.94
2023-09-28T03:22:56.489Z,98844.25
2023-09-28T03:25:24.058Z,98841.72
2023-09-28T03:27:54.128Z,98852.50
2023-09-28T03:30:22.411Z,98846.28
2023-09-28T03:32:51.359Z,98840.69
2023-09-28T03:35:20.257Z,98844.44
2023-09-28T03:37:49.437Z,98841.88
2023-09-28T03:40:19.368Z,98835.50
2023-09-28T03:42:49.912Z,98845.44
2023-09-28T03:45:21.465Z,98839.19
2023-09-28T03:47:51.420Z,98839.19
2023-09-28T03:50:20.899Z,98840.22
2023-09-28T03:52:48.469Z,98839.19
2023-09-28T03:55:20.247Z,98841.06
2023-09-28T03:57:48.801Z,98841.88
2023-09-28T04:00:19.245Z,98843.75
2023-09-28T04:02:52.033Z,98842.91
2023-09-28T04:05:21.943Z,98842.91
2023-09-28T04:07:52.344Z,98842.91
2023-09-28T04:10:24.201Z,98841.06
2023-09-28T04:12:54.777Z,98842.09
2023-09-28T04:15:24.290Z,98845.59
2023-09-28T04:17:53.047Z,98842.09
2023-09-28T04:20:21.725Z,98842.91
2023-09-28T04:22:50.452Z,98844.78
2023-09-28T04:25:21.400Z,98851.00
2023-09-28T04:27:52.271Z,98846.63
2023-09-28T04:30:23.608Z,98838.72
2023-09-28T04:32:53.396Z,98846.63
2023-09-28T04:35:22.258Z,98843.94
2023-09-28T04:37:51.017Z,98845.97
2023-09-28T04:40:25.863Z,98845.97
2023-09-28T04:42:56.923Z,98844.09
2023-09-28T04:45:25.371Z,98852.19
2023-09-28T04:47:53.866Z,98850.31
2023-09-28T04:50:23.148Z,98844.09
2023-09-28T04:52:52.190Z,98842.91
2023-09-28T04:55:20.721Z,98848.31
2023-09-28T04:57:49.553Z,98855.53
2023-09-28T05:00:19.860Z,98847.47
2023-09-28T05:02:48.998Z,98845.75
2023-09-28T05:05:18.568Z,98846.63
2023-09-28T05:07:47.645Z,98848.31
2023-09-28T05:10:16.238Z,98845.59
2023-09-28T05:12:44.810Z,98853.53
2023-09-28T05:15:14.849Z,98854.38
2023-09-28T05:17:44.788Z,98858.06
2023-09-28T05:20:14.183Z,98855.03
2023-09-28T05:22:45.084Z,98847.50
2023-09-28T05:25:13.588Z,98851.16
2023-09-28T05:27:42.173Z,98852.34
2023-09-28T05:30:13.482Z,98852.16
2023-09-28T05:32:41.953Z,98853.00
2023-09-28T05:35:12.005Z,98852.63
2023-09-28T05:37:40.537Z,98854.34
2023-09-28T05:40:11.331Z,98859.72
2023-09-28T05:42:40.991Z,98859.41
2023-09-28T05:45:11.063Z,98861.44
2023-09-28T05:47:39.576Z,98860.44
2023-09-28T05:50:09.593Z,98856.56
2023-09-28T05:52:39.550Z,98854.84
2023-09-28T05:55:09.159Z,98860.25
2023-09-28T05:57:37.669Z,98866.81
2023-09-28T06:00:11.268Z,98870.34
2023-09-28T06:02:40.334Z,98871.00
2023-09-28T06:05:11.111Z,98862.94
2023-09-28T06:07:41.377Z,98863.13
2023-09-28T06:10:10.990Z,98867.81
2023-09-28T06:12:39.536Z,98870.19
2023-09-28T06:15:10.401Z,98871.84
2023-09-28T06:17:39.380Z,98868.16
2023-09-28T06:20:10.583Z,98869.00
2023-09-28T06:22:41.448Z,98881.44
2023-09-28T06:25:10.953Z,98874.03
2023-09-28T06:27:40.586Z,98883.63
2023-09-28T06:30:10.994Z,98885.63
2023-09-28T06:32:39.516Z,98885.13
2023-09-28T06:35:10.876Z,98886.16
2023-09-28T06:37:41.214Z,98880.78
2023-09-28T06:40:11.900Z,98877.41
2023-09-28T06:42:42.847Z,98876.38
2023-09-28T06:45:13.704Z,98879.59
2023-09-28T06:47:55.572Z,98871.81
2023-09-28T06:50:28.866Z,98874.34
2023-09-28T06:52:58.827Z,98884.97
2023-09-28T06:55:27.285Z,98883.94
2023-09-28T06:57:56.041Z,98899.09
2023-09-28T07:00:24.658Z,98893.69
2023-09-28T07:02:55.166Z,98894.53
2023-09-28T07:05:24.042Z,98896.38
2023-09-28T07:07:52.647Z,98897.22
2023-09-28T07:10:22.566Z,98889.13
2023-09-28T07:12:51.147Z,98896.03
2023-09-28T07:15:19.742Z,98895.19
2023-09-28T07:17:48.451Z,98887.97
2023-09-28T07:20:16.979Z,98895.03
2023-09-28T07:22:45.685Z,98896.03
2023-09-28T07:25:14.286Z,98900.25
2023-09-28T07:27:45.650Z,98893.84
2023-09-28T07:30:15.964Z,98901.09
2023-09-28T07:32:44.699Z,98897.53
2023-09-28T07:35:13.934Z,98899.25
2023-09-28T07:37:43.301Z,98901.09
2023-09-28T07:40:13.752Z,98896.56
2023-09-28T07:42:42.834Z,98905.47
2023-09-28T07:45:13.973Z,98900.91
2023-09-28T07:47:42.616Z,98896.38
2023-09-28T07:50:16.496Z,98908.00
2023-09-28T07:52:45.981Z,98904.44
2023-09-28T07:55:15.468Z,98900.75
2023-09-28T08:00:20.245Z,98908.84
2023-09-28T08:02:48.983Z,98904.09
2023-09-28T08:05:19.333Z,98903.09
2023-09-28T08:08:00.043Z,98902.44
2023-09-28T08:10:36.532Z,98905.13
2023-09-28T08:13:05.481Z,98903.25
2023-09-28T08:15:37.503Z,98904.09
2023-09-28T08:18:06.776Z,98905.78
2023-09-28T08:20:36.424Z,98902.25
2023-09-28T08:23:07.026Z,98903.09
2023-09-28T08:25:36.941Z,98908.13
2023-09-28T08:28:06.266Z,98907.31
2023-09-28T08:30:36.564Z,98904.59
2023-09-28T08:33:05.588Z,98891.97
2023-09-28T08:35:34.236Z,98901.72
2023-09-28T08:38:02.962Z,98904.41
2023-09-28T08:40:31.882Z,98903.41
2023-09-28T08:43:04.355Z,98907.78
2023-09-28T08:45:33.165Z,98902.41
2023-09-28T08:48:04.454Z,98901.41
2023-09-28T08:50:38.187Z,98905.09
2023-09-28T08:53:07.375Z,98893.31
2023-09-28T08:55:36.029Z,98897.84
2023-09-28T08:58:05.121Z,98900.53
2023-09-28T09:00:34.078Z,98896.00
2023-09-28T09:03:05.716Z,98899.53
2023-09-28T09:05:34.462Z,98907.44
2023-09-28T09:08:03.446Z,98902.03
2023-09-28T09:10:32.078Z,98892.97
2023-09-28T09:13:00.826Z,98885.03
2023-09-28T09:15:29.319Z,98894.63
2023-09-28T09:18:01.111Z,98878.63
2023-09-28T09:20:31.557Z,98892.09
2023-09-28T09:23:13.074Z,98893.78
2023-09-28T09:25:45.349Z,98887.38
2023-09-28T09:28:15.071Z,98891.94
2023-09-28T09:30:43.631Z,98883.84
2023-09-28T09:33:15.950Z,98889.06
2023-09-28T09:35:46.369Z,98885.50
2023-09-28T09:38:15.021Z,98889.22
2023-09-28T09:40:43.462Z,98889.91
2023-09-28T09:43:12.067Z,98885.50
2023-09-28T09:45:42.096Z,98884.50
2023-09-28T09:48:11.173Z,98880.97
2023-09-28T09:50:40.824Z,98886.19
2023-09-28T09:53:10.976Z,98887.22
2023-09-28T09:55:45.243Z,98887.88
2023-09-28T09:58:17.454Z,98894.28
2023-09-28T10:00:45.993Z,98893.28
2023-09-28T10:03:14.872Z,98884.50
2023-09-28T10:05:43.389Z,98888.88
2023-09-28T10:08:13.659Z,98879.78
2023-09-28T10:10:42.493Z,98883.31
2023-09-28T10:13:11.377Z,98876.06
2023-09-28T10:15:39.916Z,98876.06
2023-09-28T10:18:08.629Z,98881.63
2023-09-28T10:20:37.277Z,98887.69
2023-09-28T10:23:18.872Z,98876.06
2023-09-28T10:25:59.037Z,98880.63
2023-09-28T10:28:28.057Z,98875.25
2023-09-28T10:31:11.433Z,98872.53
2023-09-28T10:34:01.240Z,98877.94
2023-09-28T10:36:30.062Z,98877.94
2023-09-28T10:39:15.650Z,98878.94
2023-09-28T10:41:48.442Z,98871.72
2023-09-28T10:44:17.831Z,98873.38
2023-09-28T10:46:48.486Z,98870.69
2023-09-28T10:49:17.945Z,98868.81
2023-09-28T10:51:46.477Z,98866.97
2023-09-28T10:54:16.378Z,98878.78
2023-09-28T10:56:45.059Z,98873.38
2023-09-28T10:59:13.846Z,98877.75
2023-09-28T11:01:43.373Z,98871.50
2023-09-28T11:04:14.026Z,98872.34
2023-09-28T11:06:43.767Z,98871.50
2023-09-28T11:09:14.073Z,98866.13
2023-09-28T11:11:44.367Z,98867.81
2023-09-28T11:14:13.096Z,98865.97
2023-09-28T11:16:43.353Z,98863.25
2023-09-28T11:19:11.929Z,98863.44
2023-09-28T11:21:40.556Z,98857.03
2023-09-28T11:24:09.593Z,98861.56
2023-09-28T11:26:38.215Z,98854.34
2023-09-28T11:29:09.115Z,98855.34
2023-09-28T11:31:38.451Z,98854.34
2023-09-28T11:34:07.254Z,98856.19
2023-09-28T11:36:35.861Z,98853.47
2023-09-28T11:39:04.686Z,98854.34
2023-09-28T11:41:33.329Z,98844.56
2023-09-28T11:44:01.935Z,98850.78
2023-09-28T11:46:32.682Z,98842.69
2023-09-28T11:49:06.050Z,98843.38
2023-09-28T11:51:35.289Z,98841.69
2023-09-28T11:54:04.176Z,98838.81
2023-09-28T11:56:32.862Z,98832.78
2023-09-28T11:59:01.498Z,98840.88
2023-09-28T12:01:33.202Z,98838.16
2023-09-28T12:04:01.870Z,98840.88
2023-09-28T12:06:30.422Z,98830.91
2023-09-28T12:08:59.133Z,98825.53
2023-09-28T12:11:27.702Z,98826.34
2023-09-28T12:13:56.445Z,98828.22
2023-09-28T12:16:27.342Z,98829.06
2023-09-28T12:18:58.150Z,98829.88
2023-09-28T12:21:26.621Z,98832.59
2023-09-28T12:23:57.079Z,98830.72
2023-09-28T12:26:26.004Z,98823.00
2023-09-28T12:28:55.321Z,98820.59
2023-09-28T12:31:25.083Z,98822.47
2023-09-28T12:33:54.836Z,98823.31
2023-09-28T12:36:25.207Z,98811.69
2023-09-28T12:38:53.940Z,98823.31
2023-09-28T12:41:22.541Z,98820.44
2023-09-28T12:43:51.193Z,98814.19
2023-09-28T12:46:19.713Z,98816.56
2023-09-28T12:48:50.365Z,98821.94
2023-09-28T12:51:18.871Z,98818.75
2023-09-28T12:53:48.962Z,98810.66
2023-09-28T12:56:18.334Z,98815.22
2023-09-28T12:58:47.056Z,98814.03
2023-09-28T13:01:15.642Z,98817.44
2023-09-28T13:03:44.542Z,98813.91
2023-09-28T13:06:13.293Z,98809.00
2023-09-28T13:08:41.939Z,98826.00
2023-09-28T13:13:44.031Z,98805.53
2023-09-28T13:16:14.708Z,98811.63
2023-09-28T13:18:43.728Z,98797.84
2023-09-28T13:21:14.740Z,98805.25
2023-09-28T13:23:43.411Z,98797.31
2023-09-28T13:26:15.111Z,98804.84
2023-09-28T13:28:45.488Z,98795.56
2023-09-28T13:31:15.369Z,98802.16
2023-09-28T13:33:49.744Z,98798.81
2023-09-28T13:36:20.187Z,98798.47
2023-09-28T13:38:50.559Z,98796.59
2023-09-28T13:41:26.734Z,98795.41
2023-09-28T13:43:55.847Z,98797.28
2023-09-28T13:46:24.710Z,98793.91
2023-09-28T13:48:53.621Z,98792.56
2023-09-28T13:51:22.215Z,98788.72
2023-09-28T13:53:50.865Z,98794.47
2023-09-28T13:56:20.910Z,98787.44
2023-09-28T13:58:49.571Z,98779.13
2023-09-28T14:01:18.128Z,98777.63
2023-09-28T14:03:47.233Z,98776.94
2023-09-28T14:06:15.726Z,98779.13
2023-09-28T14:08:44.681Z,98787.06
2023-09-28T14:11:14.158Z,98790.22
2023-09-28T14:13:44.805Z,98788.41
2023-09-28T14:16:13.373Z,98787.16
2023-09-28T14:18:43.248Z,98783.59
2023-09-28T14:21:12.147Z,98788.16
2023-09-28T14:23:41.249Z,98783.59
2023-09-28T14:26:10.543Z,98788.16
2023-09-28T14:28:39.114Z,98782.59
2023-09-28T14:31:09.404Z,98777.19
2023-09-28T14:33:39.394Z,98773.00
2023-09-28T14:36:08.557Z,98775.19
2023-09-28T14:38:37.228Z,98773.16
2023-09-28T14:41:06.028Z,98778.75
2023-09-28T14:43:34.620Z,98772.69
2023-09-28T14:46:04.493Z,98770.00
2023-09-28T14:48:34.741Z,98773.16
2023-09-28T14:51:03.228Z,98772.81
2023-09-28T14:53:31.882Z,98775.34
2023-09-28T14:56:00.884Z,98771.84
2023-09-28T14:58:29.772Z,98768.50
2023-09-28T15:00:58.333Z,98767.47
2023-09-28T15:03:27.054Z,98761.91
2023-09-28T15:05:57.004Z,98763.03
2023-09-28T15:08:25.595Z,98771.50
2023-09-28T15:10:54.083Z,98763.78
2023-09-28T15:13:23.254Z,98766.47
2023-09-28T15:15:51.952Z,98764.41
2023-09-28T15:18:20.602Z,98766.41
2023-09-28T15:20:49.348Z,98765.38
2023-09-28T15:23:19.393Z,98770.09
2023-09-28T15:25:48.006Z,98767.41
2023-09-28T15:28:17.330Z,98772.81
2023-09-28T15:30:52.394Z,98765.56
2023-09-28T15:33:21.080Z,98774.66
2023-09-28T15:35:49.700Z,98770.97
2023-09-28T15:38:19.804Z,98764.91
2023-09-28T15:40:48.601Z,98761.53
2023-09-28T15:43:17.201Z,98762.69
2023-09-28T15:45:47.537Z,98767.25
2023-09-28T15:48:16.101Z,98764.22
2023-09-28T15:50:44.745Z,98771.78
2023-09-28T15:53:13.237Z,98770.44
2023-09-28T15:55:43.180Z,98770.44
2023-09-28T15:58:11.664Z,98770.78
2023-09-28T16:00:40.182Z,98775.50
2023-09-28T16:03:08.831Z,98763.41
2023-09-28T16:05:37.508Z,98772.34
2023-09-28T16:08:08.342Z,98758.56
2023-09-28T16:10:37.976Z,98761.91
2023-09-28T16:13:07.891Z,98771.50
2023-09-28T16:15:36.360Z,98774.00
2023-09-28T16:18:06.393Z,98767.78
2023-09-28T16:20:35.559Z,98772.16
2023-09-28T16:23:04.971Z,98768.44
2023-09-28T16:25:33.885Z,98766.94
2023-09-28T16:28:02.769Z,98768.13
2023-09-28T16:30:32.794Z,98770.47
2023-09-28T16:33:01.489Z,98772.16
2023-09-28T16:35:30.258Z,98773.16
2023-09-28T16:37:58.925Z,98773.34
2023-09-28T16:40:28.069Z,98771.31
2023-09-28T16:42:56.637Z,98773.84
2023-09-28T16:45:25.304Z,98776.16
2023-09-28T16:47:56.054Z,98774.50
2023-09-28T16:50:24.872Z,98779.88
2023-09-28T16:52:53.567Z,98781.75
2023-09-28T16:55:22.225Z,98785.28
2023-09-28T16:57:50.831Z,98778.19
2023-09-28T17:00:20.171Z,98784.44
2023-09-28T17:02:50.161Z,98781.91
2023-09-28T17:05:20.367Z,98781.75
2023-09-28T17:07:48.900Z,98783.22
2023-09-28T17:10:19.820Z,98782.38
2023-09-28T17:12:48.688Z,98785.91
2023-09-28T17:15:17.170Z,98783.41
2023-09-28T17:17:45.749Z,98776.16
2023-09-28T17:20:14.606Z,98782.38
2023-09-28T17:22:44.481Z,98781.56
2023-09-28T17:25:13.270Z,98774.84
2023-09-28T17:27:41.842Z,98783.22
2023-09-28T17:30:12.098Z,98789.66
2023-09-28T17:32:42.550Z,98796.06
2023-09-28T17:35:12.209Z,98792.34
2023-09-28T17:37:41.133Z,98796.72
2023-09-28T17:40:12.082Z,98797.72
2023-09-28T17:42:40.759Z,98798.56
2023-09-28T17:45:11.437Z,98804.31
2023-09-28T17:47:40.152Z,98803.84
2023-09-28T17:50:09.804Z,98800.09
2023-09-28T17:52:38.761Z,98804.16
2023-09-28T17:55:08.262Z,98805.81
2023-09-28T17:57:38.603Z,98806.84
2023-09-28T18:00:11.202Z,98808.53
2023-09-28T18:02:40.751Z,98817.66
2023-09-28T18:05:10.535Z,98822.19
2023-09-28T18:07:39.190Z,98807.22
2023-09-28T18:10:09.709Z,98814.28
2023-09-28T18:12:39.704Z,98818.00
2023-09-28T18:15:10.809Z,98821.69
2023-09-28T18:17:39.480Z,98827.59
2023-09-28T18:20:10.950Z,98829.25
2023-09-28T18:22:40.008Z,98830.09
2023-09-28T18:25:11.755Z,98831.13
2023-09-28T18:27:41.910Z,98822.19
2023-09-28T18:30:11.067Z,98829.44
2023-09-28T18:32:39.794Z,98837.72
2023-09-28T18:35:10.062Z,98833.50
2023-09-28T18:37:38.625Z,98831.81
2023-09-28T18:40:09.460Z,98839.13
2023-09-28T18:42:38.042Z,98833.56
2023-09-28T18:45:09.704Z,98842.50
2023-09-28T18:47:38.318Z,98840.50
2023-09-28T18:50:08.674Z,98845.53
2023-09-28T18:52:37.265Z,98846.38
2023-09-28T18:55:07.035Z,98841.81
2023-09-28T18:57:37.540Z,98844.75
2023-09-28T19:00:12.027Z,98848.75
2023-09-28T19:02:41.071Z,98849.78
2023-09-28T19:05:11.531Z,98851.97
2023-09-28T19:07:40.200Z,98857.88
2023-09-28T19:10:09.962Z,98858.56
2023-09-28T19:12:39.625Z,98858.06
2023-09-28T19:15:12.567Z,98861.66
2023-09-28T19:17:41.380Z,98855.59
2023-09-28T19:20:12.456Z,98863.53
2023-09-28T19:22:41.127Z,98862.72
2023-09-28T19:25:11.021Z,98870.75
2023-09-28T19:27:40.165Z,98867.50
2023-09-28T19:30:11.930Z,98864.31
2023-09-28T19:32:40.829Z,98871.41
2023-09-28T19:35:11.090Z,98874.44
2023-09-28T19:37:41.274Z,98872.69
2023-09-28T19:40:11.492Z,98870.72
2023-09-28T19:42:41.964Z,98864.19
2023-09-28T19:45:13.771Z,98871.47
2023-09-28T19:47:42.758Z,98870.78
2023-09-28T19:50:13.700Z,98873.09
2023-09-28T19:52:42.216Z,98876.28
2023-09-28T19:55:12.000Z,98873.56
2023-09-28T19:57:40.638Z,98873.91
2023-09-28T20:00:13.613Z,98870.88
2023-09-28T20:02:42.250Z,98875.91
2023-09-28T20:05:12.263Z,98869.34
2023-09-28T20:07:42.478Z,98871.03
2023-09-28T20:10:12.479Z,98872.03
2023-09-28T20:12:41.874Z,98877.44
2023-09-28T20:15:12.386Z,98875.59
2023-09-28T20:17:41.625Z,98883.31
2023-09-28T20:20:12.055Z,98876.91
2023-09-28T20:22:55.915Z,98877.75
2023-09-28T20:25:26.000Z,98876.75
2023-09-28T20:27:55.149Z,98873.22
2023-09-28T20:30:25.558Z,98879.44
2023-09-28T20:32:54.221Z,98875.03
2023-09-28T20:35:23.811Z,98881.31
2023-09-28T20:37:52.275Z,98875.25
2023-09-28T20:40:21.159Z,98868.00
2023-09-28T20:42:49.645Z,98869.00
2023-09-28T20:45:18.753Z,98881.47
2023-09-28T20:47:48.736Z,98881.47
2023-09-28T20:50:18.021Z,98881.47
2023-09-28T20:52:46.569Z,98889.56
2023-09-28T20:55:15.257Z,98883.31
2023-09-28T20:57:44.087Z,98886.03
2023-09-28T21:00:14.465Z,98887.00
2023-09-28T21:02:43.398Z,98886.38
2023-09-28T21:05:14.091Z,98886.38
2023-09-28T21:07:45.512Z,98888.88
2023-09-28T21:10:14.877Z,98892.59
2023-09-28T21:12:43.615Z,98885.50
2023-09-28T21:15:13.120Z,98890.06
2023-09-28T21:17:42.296Z,98890.91
2023-09-28T21:20:15.022Z,98892.97
2023-09-28T21:22:43.651Z,98893.13
2023-09-28T21:25:13.772Z,98889.59
2023-09-28T21:27:42.486Z,98890.41
2023-09-28T21:30:12.894Z,98886.88
2023-09-28T21:32:41.487Z,98892.28
2023-09-28T21:35:11.006Z,98890.63
2023-09-28T21:37:42.640Z,98889.59
2023-09-28T21:40:12.412Z,98897.47
2023-09-28T21:42:41.729Z,98892.09
2023-09-28T21:45:11.109Z,98895.28
2023-09-28T21:47:40.258Z,98891.56
2023-09-28T21:50:09.930Z,98897.81
2023-09-28T21:52:38.961Z,98904.06
2023-09-28T21:55:10.751Z,98899.66
2023-09-28T21:57:39.337Z,98897.81
2023-09-28T22:00:31.101Z,98894.28
2023-09-28T22:03:01.859Z,98893.28
2023-09-28T22:05:30.868Z,98892.41
2023-09-28T22:07:59.623Z,98895.97
2023-09-28T22:10:30.001Z,98896.81
2023-09-28T22:12:59.029Z,98891.41
2023-09-28T22:15:27.881Z,98897.81
2023-09-28T22:17:56.799Z,98901.34
2023-09-28T22:20:25.764Z,98895.97
2023-09-28T22:22:54.271Z,98893.44
2023-09-28T22:25:22.717Z,98888.88
2023-09-28T22:27:52.621Z,98893.44
2023-09-28T22:30:21.210Z,98888.88
2023-09-28T22:32:49.792Z,98888.88
2023-09-28T22:35:18.405Z,98889.72
2023-09-28T22:37:46.875Z,98888.88
2023-09-28T22:40:27.819Z,98884.31
2023-09-28T22:42:58.933Z,98877.25
2023-09-28T22:45:27.886Z,98890.59
2023-09-28T22:47:57.095Z,98888.03
2023-09-28T22:50:25.813Z,98881.63
2023-09-28T22:52:54.241Z,98896.97
2023-09-28T22:55:23.251Z,98903.38
2023-09-28T22:57:52.002Z,98904.06
2023-09-28T23:00:21.889Z,98899.66
2023-09-28T23:02:50.985Z,98891.56
2023-09-28T23:05:19.670Z,98899.66
2023-09-28T23:07:48.633Z,98895.28
2023-09-28T23:10:17.229Z,98901.53
2023-09-28T23:12:45.877Z,98896.97
2023-09-28T23:15:15.243Z,98898.00
2023-09-28T23:17:46.638Z,98898.81
2023-09-28T23:20:16.661Z,98892.59
2023-09-28T23:22:45.860Z,98891.78
2023-09-28T23:25:15.038Z,98898.00
2023-09-28T23:27:47.228Z,98891.78
2023-09-28T23:30:19.940Z,98896.28
2023-09-28T23:32:51.761Z,98899.84
2023-09-28T23:35:24.321Z,98891.94
2023-09-28T23:37:56.201Z,98897.31
2023-09-28T23:40:26.463Z,98902.72
2023-09-28T23:42:55.945Z,98896.28
2023-09-28T23:45:29.370Z,98899.19
2023-09-28T23:47:59.804Z,98900.00
2023-09-28T23:50:28.700Z,98891.09
2023-09-28T23:52:57.557Z,98891.09
2023-09-28T23:55:26.205Z,98892.97
2023-09-28T23:57:55.673Z,98892.97
